createdAt,value
2018-11-25T00:01:28.512Z,22.80
2018-11-25T00:03:56.652Z,22.40
2018-11-25T00:06:24.780Z,23.90
2018-11-25T00:08:53.032Z,23.33
2018-11-25T00:11:21.146Z,22.67
2018-11-25T00:13:49.264Z,22.47
2018-11-25T00:16:17.374Z,23.33
2018-11-25T00:18:45.801Z,21.87
2018-11-25T00:21:13.892Z,23.43
2018-11-25T00:23:42.044Z,23.67
2018-11-25T00:26:10.159Z,21.97
2018-11-25T00:28:38.319Z,22.53
2018-11-25T00:31:09.595Z,23.43
2018-11-25T00:33:34.872Z,22.57
2018-11-25T00:36:03.011Z,23.70
2018-11-25T00:38:31.176Z,23.20
2018-11-25T00:40:59.327Z,23.30
2018-11-25T00:43:27.465Z,24.03
2018-11-25T00:45:55.653Z,24.33
2018-11-25T00:48:23.806Z,25.10
2018-11-25T00:50:51.956Z,25.20
2018-11-25T00:53:20.063Z,24.93
2018-11-25T00:55:48.236Z,27.00
2018-11-25T00:58:16.376Z,25.10
2018-11-25T01:00:44.510Z,25.60
2018-11-25T01:03:12.639Z,24.20
2018-11-25T01:05:40.766Z,25.20
2018-11-25T01:08:08.961Z,25.53
2018-11-25T01:10:37.144Z,24.33
2018-11-25T01:13:05.524Z,24.67
2018-11-25T01:15:33.653Z,24.40
2018-11-25T01:18:01.788Z,27.60
2018-11-25T01:20:29.905Z,27.90
2018-11-25T01:22:58.107Z,26.80
2018-11-25T01:25:26.277Z,26.87
2018-11-25T01:27:54.408Z,25.77
2018-11-25T01:30:22.602Z,24.43
2018-11-25T01:32:50.746Z,25.87
2018-11-25T01:35:18.982Z,26.40
2018-11-25T01:37:47.154Z,23.93
2018-11-25T01:40:16.364Z,24.40
2018-11-25T01:42:44.495Z,25.47
2018-11-25T01:45:14.561Z,23.67
2018-11-25T01:47:42.676Z,23.37
2018-11-25T01:50:13.825Z,24.10
2018-11-25T01:52:41.932Z,21.90
2018-11-25T01:55:11.229Z,23.67
2018-11-25T01:57:39.335Z,23.20
2018-11-25T02:00:11.945Z,23.10
2018-11-25T02:02:40.164Z,21.70
2018-11-25T02:05:08.300Z,22.53
2018-11-25T02:07:36.384Z,24.10
2018-11-25T02:10:07.664Z,23.20
2018-11-25T02:12:35.783Z,22.50
2018-11-25T02:15:03.917Z,23.60
2018-11-25T02:17:32.080Z,23.20
2018-11-25T02:20:00.216Z,23.70
2018-11-25T02:22:29.052Z,24.90
2018-11-25T02:24:56.543Z,23.13
2018-11-25T02:27:24.672Z,22.50
2018-11-25T02:29:52.813Z,23.50
2018-11-25T02:32:20.981Z,24.00
2018-11-25T02:34:49.209Z,23.50
2018-11-25T02:37:17.359Z,22.97
2018-11-25T02:39:45.508Z,23.87
2018-11-25T02:42:13.658Z,24.40
2018-11-25T02:44:41.822Z,23.90
2018-11-25T02:47:09.951Z,22.97
2018-11-25T02:49:38.095Z,24.40
2018-11-25T02:52:06.269Z,24.20
2018-11-25T02:54:34.420Z,22.20
2018-11-25T02:57:02.549Z,24.50
2018-11-25T02:59:30.680Z,23.67
2018-11-25T03:01:58.868Z,24.70
2018-11-25T03:04:27.033Z,25.67
2018-11-25T03:06:55.200Z,25.00
2018-11-25T03:09:23.376Z,22.83
2018-11-25T03:11:51.618Z,22.27
2018-11-25T03:14:19.799Z,22.70
2018-11-25T03:16:47.956Z,23.63
2018-11-25T03:19:16.069Z,23.27
2018-11-25T03:21:45.044Z,24.37
2018-11-25T03:24:13.213Z,23.20
2018-11-25T03:26:41.384Z,24.80
2018-11-25T03:29:09.534Z,23.27
2018-11-25T03:31:37.705Z,23.90
2018-11-25T03:34:06.584Z,24.17
2018-11-25T03:36:34.714Z,23.17
2018-11-25T03:39:02.933Z,23.87
2018-11-25T03:41:31.168Z,23.27
2018-11-25T03:43:59.292Z,23.50
2018-11-25T03:46:27.422Z,23.73
2018-11-25T03:48:55.567Z,22.60
2018-11-25T03:51:23.686Z,24.10
2018-11-25T03:53:51.828Z,23.97
2018-11-25T03:56:19.980Z,24.87
2018-11-25T03:58:48.101Z,23.43
2018-11-25T04:01:16.274Z,22.90
2018-11-25T04:03:44.445Z,24.50
2018-11-25T04:06:12.589Z,24.23
2018-11-25T04:08:40.805Z,25.63
2018-11-25T04:11:09.005Z,24.50
2018-11-25T04:13:37.140Z,24.03
2018-11-25T04:16:05.434Z,23.93
2018-11-25T04:18:33.552Z,25.07
2018-11-25T04:21:01.680Z,24.40
2018-11-25T04:23:29.845Z,24.60
2018-11-25T04:25:58.005Z,24.03
2018-11-25T04:28:26.147Z,25.13
2018-11-25T04:30:54.253Z,25.97
2018-11-25T04:33:22.419Z,26.00
2018-11-25T04:35:50.569Z,26.63
2018-11-25T04:38:18.682Z,24.50
2018-11-25T04:40:46.838Z,25.60
2018-11-25T04:43:15.020Z,26.37
2018-11-25T04:45:43.185Z,26.13
2018-11-25T04:48:11.307Z,26.00
2018-11-25T04:50:39.439Z,28.83
2018-11-25T04:53:07.605Z,25.97
2018-11-25T04:55:35.752Z,26.30
2018-11-25T04:58:03.851Z,27.27
2018-11-25T05:00:32.020Z,26.63
2018-11-25T05:03:00.154Z,29.47
2018-11-25T05:05:28.277Z,27.63
2018-11-25T05:07:56.440Z,28.70
2018-11-25T05:10:24.617Z,29.30
2018-11-25T05:12:52.765Z,31.27
2018-11-25T05:15:21.656Z,30.30
2018-11-25T05:17:49.957Z,30.47
2018-11-25T05:20:18.801Z,30.80
2018-11-25T05:22:47.027Z,31.10
2018-11-25T05:25:16.107Z,29.10
2018-11-25T05:27:44.261Z,29.07
2018-11-25T05:30:19.740Z,30.67
2018-11-25T05:32:47.904Z,29.23
2018-11-25T05:35:16.905Z,28.70
2018-11-25T05:37:45.085Z,30.87
2018-11-25T05:40:13.972Z,29.97
2018-11-25T05:42:42.295Z,29.80
2018-11-25T05:45:15.084Z,30.73
2018-11-25T05:47:43.285Z,33.43
2018-11-25T05:50:13.429Z,31.83
2018-11-25T05:52:41.606Z,33.77
2018-11-25T05:55:10.754Z,32.10
2018-11-25T05:57:38.897Z,31.83
2018-11-25T06:00:11.633Z,30.30
2018-11-25T06:02:39.799Z,31.20
2018-11-25T06:05:08.003Z,31.13
2018-11-25T06:07:36.171Z,28.77
2018-11-25T06:10:04.349Z,29.77
2018-11-25T06:12:32.578Z,28.30
2018-11-25T06:15:00.730Z,28.37
2018-11-25T06:17:28.883Z,27.57
2018-11-25T06:19:57.025Z,29.13
2018-11-25T06:22:25.196Z,27.67
2018-11-25T06:24:53.470Z,28.30
2018-11-25T06:27:21.652Z,26.63
2018-11-25T06:29:49.761Z,28.87
2018-11-25T06:32:18.002Z,25.70
2018-11-25T06:34:46.149Z,26.87
2018-11-25T06:37:14.288Z,24.77
2018-11-25T06:39:42.457Z,24.53
2018-11-25T06:42:10.636Z,26.07
2018-11-25T06:44:38.778Z,26.00
2018-11-25T06:47:06.953Z,23.20
2018-11-25T06:49:35.101Z,24.87
2018-11-25T06:52:03.266Z,24.70
2018-11-25T06:54:31.414Z,24.83
2018-11-25T06:56:59.564Z,25.13
2018-11-25T06:59:27.724Z,24.97
2018-11-25T07:01:55.922Z,25.30
2018-11-25T07:04:24.109Z,28.20
2018-11-25T07:06:52.358Z,26.60
2018-11-25T07:09:20.545Z,26.93
2018-11-25T07:11:48.750Z,26.77
2018-11-25T07:14:16.893Z,26.10
2018-11-25T07:16:45.159Z,27.10
2018-11-25T07:19:13.340Z,25.67
2018-11-25T07:21:41.528Z,25.03
2018-11-25T07:24:09.789Z,25.63
2018-11-25T07:26:37.956Z,24.53
2018-11-25T07:29:06.189Z,25.40
2018-11-25T07:31:34.380Z,24.80
2018-11-25T07:34:02.588Z,26.60
2018-11-25T07:36:30.781Z,25.33
2018-11-25T07:38:59.117Z,25.00
2018-11-25T07:41:27.310Z,24.93
2018-11-25T07:43:55.481Z,26.23
2018-11-25T07:46:23.733Z,27.53
2018-11-25T07:48:51.926Z,26.83
2018-11-25T07:51:20.112Z,26.93
2018-11-25T07:53:48.280Z,27.77
2018-11-25T07:56:16.456Z,30.23
2018-11-25T07:58:44.656Z,30.40
2018-11-25T08:01:12.815Z,29.60
2018-11-25T08:03:41.004Z,29.90
2018-11-25T08:06:09.260Z,28.73
2018-11-25T08:08:37.464Z,29.03
2018-11-25T08:11:05.784Z,31.10
2018-11-25T08:13:33.980Z,29.20
2018-11-25T08:16:02.124Z,28.50
2018-11-25T08:18:30.249Z,29.87
2018-11-25T08:20:58.426Z,31.20
2018-11-25T08:23:26.689Z,28.30
2018-11-25T08:25:54.980Z,29.67
2018-11-25T08:28:23.130Z,30.10
2018-11-25T08:30:51.280Z,31.60
2018-11-25T08:33:19.480Z,30.57
2018-11-25T08:35:47.741Z,30.57
2018-11-25T08:38:15.915Z,31.30
2018-11-25T08:40:44.056Z,32.97
2018-11-25T08:43:12.280Z,30.90
2018-11-25T08:45:40.448Z,29.67
2018-11-25T08:48:08.613Z,30.43
2018-11-25T08:50:36.754Z,28.80
2018-11-25T08:53:04.986Z,29.70
2018-11-25T08:55:33.162Z,30.80
2018-11-25T08:58:01.393Z,31.80
2018-11-25T09:00:29.800Z,30.60
2018-11-25T09:02:58.005Z,31.13
2018-11-25T09:05:26.181Z,29.90
2018-11-25T09:07:54.334Z,30.67
2018-11-25T09:10:22.812Z,32.87
2018-11-25T09:12:56.318Z,31.77
2018-11-25T09:15:28.406Z,32.67
2018-11-25T09:17:56.584Z,31.67
2018-11-25T09:20:24.804Z,31.67
2018-11-25T09:22:53.012Z,32.30
2018-11-25T09:25:30.911Z,32.17
2018-11-25T09:28:00.192Z,31.73
2018-11-25T09:30:29.204Z,32.30
2018-11-25T09:32:57.491Z,31.67
2018-11-25T09:35:25.710Z,31.73
2018-11-25T09:37:53.833Z,32.33
2018-11-25T09:40:22.996Z,33.70
2018-11-25T09:42:51.169Z,31.10
2018-11-25T09:45:19.855Z,31.93
2018-11-25T09:47:48.227Z,31.90
2018-11-25T09:50:22.936Z,32.30
2018-11-25T09:52:51.160Z,31.67
2018-11-25T09:55:23.332Z,32.07
2018-11-25T09:57:52.833Z,33.10
2018-11-25T10:00:22.996Z,34.43
2018-11-25T10:02:51.145Z,34.53
2018-11-25T10:05:19.306Z,33.60
2018-11-25T10:07:47.479Z,32.50
2018-11-25T10:10:16.941Z,33.03
2018-11-25T10:12:45.107Z,32.40
2018-11-25T10:15:14.517Z,32.77
2018-11-25T10:17:42.720Z,31.70
2018-11-25T10:20:17.946Z,31.53
2018-11-25T10:22:46.120Z,33.07
2018-11-25T10:25:14.972Z,31.93
2018-11-25T10:27:43.158Z,36.17
2018-11-25T10:30:17.892Z,31.53
2018-11-25T10:32:47.036Z,31.60
2018-11-25T10:35:15.231Z,32.30
2018-11-25T10:37:43.436Z,32.30
2018-11-25T10:40:15.312Z,32.27
2018-11-25T10:42:43.445Z,32.27
2018-11-25T10:45:13.643Z,30.90
2018-11-25T10:47:41.816Z,30.07
2018-11-25T10:50:12.160Z,31.70
2018-11-25T10:52:40.355Z,31.23
2018-11-25T10:55:09.769Z,32.53
2018-11-25T10:57:38.003Z,29.53
2018-11-25T11:00:19.967Z,30.83
2018-11-25T11:02:48.468Z,30.73
2018-11-25T11:05:22.052Z,31.70
2018-11-25T11:07:50.177Z,28.33
2018-11-25T11:10:18.354Z,30.93
2018-11-25T11:12:46.574Z,31.63
2018-11-25T11:15:14.792Z,31.63
2018-11-25T11:17:43.095Z,30.00
2018-11-25T11:20:11.225Z,28.73
2018-11-25T11:22:39.398Z,33.23
2018-11-25T11:25:08.535Z,35.23
2018-11-25T11:27:36.674Z,31.40
2018-11-25T11:30:07.400Z,32.03
2018-11-25T11:32:35.670Z,32.07
2018-11-25T11:35:04.081Z,31.80
2018-11-25T11:37:32.326Z,33.50
2018-11-25T11:40:00.482Z,33.57
2018-11-25T11:42:28.967Z,31.43
2018-11-25T11:44:56.932Z,30.73
2018-11-25T11:47:25.140Z,31.63
2018-11-25T11:49:53.356Z,29.70
2018-11-25T11:52:21.585Z,33.20
2018-11-25T11:54:50.939Z,31.50
2018-11-25T11:57:19.152Z,24.47
2018-11-25T11:59:47.486Z,22.83
2018-11-25T12:02:15.665Z,24.77
2018-11-25T12:04:44.045Z,28.40
2018-11-25T12:07:12.172Z,28.53
2018-11-25T12:09:40.412Z,29.30
2018-11-25T12:12:08.628Z,30.53
2018-11-25T12:14:36.735Z,31.27
2018-11-25T12:17:05.123Z,31.90
2018-11-25T12:19:33.270Z,32.40
2018-11-25T12:22:01.499Z,31.70
2018-11-25T12:24:29.697Z,32.67
2018-11-25T12:26:57.885Z,32.93
2018-11-25T12:29:26.085Z,32.80
2018-11-25T12:31:54.262Z,33.60
2018-11-25T12:34:22.436Z,32.00
2018-11-25T12:36:50.651Z,32.10
2018-11-25T12:39:19.233Z,30.77
2018-11-25T12:41:47.426Z,30.57
2018-11-25T12:44:15.560Z,30.90
2018-11-25T12:46:43.696Z,32.23
2018-11-25T12:49:11.833Z,31.40
2018-11-25T12:51:40.049Z,31.63
2018-11-25T12:54:08.196Z,29.60
2018-11-25T12:56:36.387Z,28.27
2018-11-25T12:59:04.958Z,29.07
2018-11-25T13:01:33.116Z,29.23
2018-11-25T13:04:01.374Z,29.17
2018-11-25T13:06:29.577Z,29.97
2018-11-25T13:08:57.745Z,31.37
2018-11-25T13:11:25.904Z,31.07
2018-11-25T13:13:54.081Z,32.23
2018-11-25T13:16:22.259Z,30.30
2018-11-25T13:18:50.442Z,28.80
2018-11-25T13:21:18.672Z,29.80
2018-11-25T13:23:46.885Z,28.53
2018-11-25T13:26:15.041Z,27.90
2018-11-25T13:28:43.248Z,28.00
2018-11-25T13:31:11.584Z,28.00
2018-11-25T13:33:40.109Z,28.00
2018-11-25T13:36:09.608Z,26.70
2018-11-25T13:38:37.769Z,26.80
2018-11-25T13:41:06.889Z,26.97
2018-11-25T13:43:35.037Z,27.50
2018-11-25T13:46:03.611Z,27.20
2018-11-25T13:48:31.732Z,27.57
2018-11-25T13:51:07.364Z,26.80
2018-11-25T13:53:35.698Z,26.53
2018-11-25T13:56:03.909Z,27.17
2018-11-25T13:58:32.144Z,27.00
2018-11-25T14:01:00.441Z,25.43
2018-11-25T14:03:31.516Z,26.63
2018-11-25T14:05:59.687Z,25.53
2018-11-25T14:08:27.922Z,28.70
2018-11-25T14:11:00.131Z,29.30
2018-11-25T14:13:28.307Z,27.20
2018-11-25T14:15:56.468Z,26.93
2018-11-25T14:18:24.644Z,28.73
2018-11-25T14:20:52.770Z,27.20
2018-11-25T14:23:21.124Z,27.80
2018-11-25T14:25:49.734Z,27.87
2018-11-25T14:28:18.109Z,27.37
2018-11-25T14:30:46.343Z,27.30
2018-11-25T14:33:14.517Z,26.27
2018-11-25T14:35:42.684Z,27.63
2018-11-25T14:38:10.904Z,25.77
2018-11-25T14:40:39.163Z,26.27
2018-11-25T14:43:07.549Z,26.57
2018-11-25T14:45:35.646Z,24.80
2018-11-25T14:48:03.863Z,26.63
2018-11-25T14:50:32.034Z,25.93
2018-11-25T14:53:00.260Z,26.33
2018-11-25T14:55:28.413Z,25.50
2018-11-25T14:57:56.590Z,25.50
2018-11-25T15:00:24.708Z,24.80
2018-11-25T15:02:55.348Z,25.23
2018-11-25T15:05:25.415Z,25.30
2018-11-25T15:07:53.613Z,24.30
2018-11-25T15:10:21.745Z,25.30
2018-11-25T15:12:49.993Z,24.70
2018-11-25T15:15:18.509Z,26.93
2018-11-25T15:17:46.764Z,26.20
2018-11-25T15:20:14.933Z,25.27
2018-11-25T15:22:44.855Z,24.20
2018-11-25T15:25:16.481Z,25.13
2018-11-25T15:27:44.697Z,25.50
2018-11-25T15:30:12.831Z,26.30
2018-11-25T15:32:41.389Z,26.23
2018-11-25T15:35:10.762Z,24.13
2018-11-25T15:37:40.374Z,26.87
2018-11-25T15:40:11.656Z,24.50
2018-11-25T15:42:39.909Z,24.40
2018-11-25T15:45:09.664Z,24.20
2018-11-25T15:47:38.293Z,26.17
2018-11-25T15:50:09.595Z,25.50
2018-11-25T15:52:38.129Z,24.43
2018-11-25T15:55:09.106Z,25.47
2018-11-25T15:57:37.235Z,26.70
2018-11-25T16:00:16.281Z,23.70
2018-11-25T16:02:44.517Z,24.37
2018-11-25T16:05:14.275Z,24.13
2018-11-25T16:07:42.790Z,23.67
2018-11-25T16:10:11.925Z,25.37
2018-11-25T16:12:40.914Z,24.90
2018-11-25T16:15:12.219Z,24.43
2018-11-25T16:17:40.431Z,25.43
2018-11-25T16:20:10.211Z,24.10
2018-11-25T16:22:38.321Z,23.33
2018-11-25T16:25:14.415Z,24.50
2018-11-25T16:27:42.554Z,26.00
2018-11-25T16:30:12.185Z,24.37
2018-11-25T16:32:40.299Z,19.50
2018-11-25T16:35:09.632Z,25.57
2018-11-25T16:37:38.466Z,25.43
2018-11-25T16:40:13.621Z,24.57
2018-11-25T16:42:41.876Z,25.80
2018-11-25T16:45:11.436Z,26.30
2018-11-25T16:47:39.560Z,24.27
2018-11-25T16:50:09.389Z,25.40
2018-11-25T16:52:37.505Z,23.80
2018-11-25T16:55:07.605Z,24.77
2018-11-25T16:57:35.767Z,24.00
2018-11-25T17:00:04.656Z,23.60
2018-11-25T17:02:32.776Z,23.73
2018-11-25T17:05:01.013Z,22.00
2018-11-25T17:07:29.124Z,21.57
2018-11-25T17:09:57.627Z,23.57
2018-11-25T17:12:25.756Z,22.20
2018-11-25T17:14:53.922Z,22.03
2018-11-25T17:17:22.122Z,22.67
2018-11-25T17:19:50.383Z,25.20
2018-11-25T17:22:18.612Z,24.70
2018-11-25T17:24:46.858Z,26.20
2018-11-25T17:27:15.312Z,24.50
2018-11-25T17:29:43.487Z,24.73
2018-11-25T17:32:11.641Z,23.13
2018-11-25T17:34:39.836Z,25.80
2018-11-25T17:37:07.962Z,23.93
2018-11-25T17:39:36.137Z,27.97
2018-11-25T17:42:04.252Z,25.23
2018-11-25T17:44:32.474Z,27.27
2018-11-25T17:47:00.616Z,28.40
2018-11-25T17:49:28.927Z,19.80
2018-11-25T17:51:57.089Z,19.73
2018-11-25T17:54:25.291Z,21.20
2018-11-25T17:56:53.566Z,22.93
2018-11-25T17:59:21.589Z,20.60
2018-11-25T18:01:49.752Z,22.10
2018-11-25T18:04:17.920Z,20.47
2018-11-25T18:06:46.033Z,20.33
2018-11-25T18:09:14.332Z,21.97
2018-11-25T18:11:42.584Z,21.67
2018-11-25T18:14:10.749Z,22.17
2018-11-25T18:16:38.948Z,22.00
2018-11-25T18:19:23.053Z,22.37
2018-11-25T18:21:58.410Z,22.40
2018-11-25T18:24:26.596Z,22.90
2018-11-25T18:26:54.774Z,21.53
2018-11-25T18:29:23.040Z,23.87
2018-11-25T18:31:51.398Z,24.37
2018-11-25T18:34:19.928Z,23.67
2018-11-25T18:36:48.165Z,22.23
2018-11-25T18:39:16.435Z,23.77
2018-11-25T18:41:44.675Z,23.60
2018-11-25T18:44:12.887Z,22.70
2018-11-25T18:46:46.549Z,24.60
2018-11-25T18:49:10.426Z,23.40
2018-11-25T18:51:40.185Z,23.97
2018-11-25T18:54:09.334Z,23.10
2018-11-25T18:56:37.478Z,23.37
2018-11-25T18:59:06.071Z,23.60
2018-11-25T19:01:49.434Z,22.93
2018-11-25T19:04:17.645Z,22.67
2018-11-25T19:06:45.892Z,24.63
2018-11-25T19:09:14.166Z,21.63
2018-11-25T19:11:42.327Z,23.07
2018-11-25T19:14:10.525Z,22.87
2018-11-25T19:16:38.656Z,23.30
2018-11-25T19:19:06.830Z,22.10
2018-11-25T19:21:35.020Z,22.10
2018-11-25T19:24:03.241Z,23.33
2018-11-25T19:26:31.367Z,24.47
2018-11-25T19:28:59.548Z,23.93
2018-11-25T19:31:27.737Z,22.60
2018-11-25T19:33:55.931Z,23.27
2018-11-25T19:36:24.796Z,23.40
2018-11-25T19:38:53.693Z,23.37
2018-11-25T19:41:21.926Z,23.57
2018-11-25T19:43:50.092Z,23.63
2018-11-25T19:46:18.512Z,23.67
2018-11-25T19:48:46.737Z,24.53
2018-11-25T19:51:17.529Z,23.93
2018-11-25T19:53:43.163Z,23.93
2018-11-25T19:56:11.360Z,21.93
2018-11-25T19:58:39.805Z,23.50
2018-11-25T20:01:08.163Z,23.37
2018-11-25T20:03:36.487Z,22.97
2018-11-25T20:06:04.897Z,22.60
2018-11-25T20:08:33.175Z,22.53
2018-11-25T20:11:01.891Z,23.10
2018-11-25T20:13:30.142Z,22.60
2018-11-25T20:16:03.776Z,22.37
2018-11-25T20:18:32.014Z,22.23
2018-11-25T20:21:05.679Z,21.60
2018-11-25T20:23:33.847Z,22.10
2018-11-25T20:26:02.894Z,22.40
2018-11-25T20:28:31.176Z,21.13
2018-11-25T20:30:59.349Z,20.20
2018-11-25T20:33:33.025Z,19.70
2018-11-25T20:36:01.272Z,20.30
2018-11-25T20:38:34.882Z,19.57
2018-11-25T20:41:03.141Z,20.27
2018-11-25T20:43:31.485Z,19.97
2018-11-25T20:46:04.867Z,21.00
2018-11-25T20:48:33.162Z,20.43
2018-11-25T20:51:01.405Z,19.77
2018-11-25T20:53:35.312Z,19.80
2018-11-25T20:56:03.461Z,20.00
2018-11-25T20:58:31.748Z,20.30
2018-11-25T21:00:59.892Z,20.10
2018-11-25T21:03:28.211Z,18.77
2018-11-25T21:05:56.349Z,20.73
2018-11-25T21:08:24.651Z,19.53
2018-11-25T21:10:52.865Z,19.00
2018-11-25T21:13:21.077Z,19.00
2018-11-25T21:15:49.389Z,19.53
2018-11-25T21:18:17.592Z,20.00
2018-11-25T21:20:51.133Z,18.70
2018-11-25T21:23:13.998Z,19.40
2018-11-25T21:25:42.165Z,18.90
2018-11-25T21:28:10.479Z,19.90
2018-11-25T21:30:38.641Z,19.13
2018-11-25T21:33:06.996Z,18.70
2018-11-25T21:35:35.156Z,18.70
2018-11-25T21:38:03.347Z,19.13
2018-11-25T21:40:31.641Z,19.23
2018-11-25T21:42:59.765Z,17.93
2018-11-25T21:45:27.932Z,19.03
2018-11-25T21:47:56.047Z,18.90
2018-11-25T21:50:25.463Z,19.20
2018-11-25T21:52:53.801Z,19.50
2018-11-25T21:55:22.104Z,20.40
2018-11-25T21:57:50.276Z,19.17
2018-11-25T22:00:19.881Z,19.53
2018-11-25T22:02:48.097Z,20.70
2018-11-25T22:05:16.349Z,18.50
2018-11-25T22:07:47.183Z,18.57
2018-11-25T22:10:16.765Z,18.57
2018-11-25T22:12:45.212Z,19.20
2018-11-25T22:15:16.619Z,18.03
2018-11-25T22:17:45.071Z,17.80
2018-11-25T22:20:14.013Z,18.20
2018-11-25T22:22:42.259Z,17.40
2018-11-25T22:25:11.430Z,17.20
2018-11-25T22:27:39.581Z,18.20
2018-11-25T22:30:17.140Z,19.20
2018-11-25T22:32:45.408Z,18.67
2018-11-25T22:35:16.302Z,18.50
2018-11-25T22:37:44.422Z,17.57
2018-11-25T22:40:13.480Z,17.90
2018-11-25T22:42:42.380Z,19.17
2018-11-25T22:45:11.441Z,17.60
2018-11-25T22:47:39.548Z,17.93
2018-11-25T22:50:11.041Z,16.83
2018-11-25T22:52:39.140Z,15.67
2018-11-25T22:55:17.532Z,17.50
2018-11-25T22:57:45.934Z,17.47
2018-11-25T23:00:23.985Z,17.43
2018-11-25T23:02:52.155Z,17.10
2018-11-25T23:05:31.572Z,18.10
2018-11-25T23:07:59.726Z,18.40
2018-11-25T23:10:27.853Z,17.67
2018-11-25T23:12:55.980Z,17.37
2018-11-25T23:15:24.145Z,17.60
2018-11-25T23:17:52.265Z,17.80
2018-11-25T23:20:26.957Z,17.63
2018-11-25T23:22:55.215Z,18.10
2018-11-25T23:25:23.369Z,16.60
2018-11-25T23:27:51.490Z,17.13
2018-11-25T23:30:19.605Z,17.23
2018-11-25T23:32:47.724Z,16.37
2018-11-25T23:35:18.147Z,17.37
2018-11-25T23:37:46.282Z,17.50
2018-11-25T23:40:14.508Z,16.67
2018-11-25T23:42:42.620Z,17.37
2018-11-25T23:45:11.969Z,17.07
2018-11-25T23:47:40.119Z,16.80
2018-11-25T23:50:09.574Z,16.00
2018-11-25T23:52:38.114Z,17.80
2018-11-25T23:55:09.723Z,17.17
2018-11-25T23:57:37.849Z,18.53
